sensor_id;sensor_type;location;lat;lon;timestamp;P1;durP1;ratioP1;P2;durP2;ratioP2
58966;SDS011;44744;51.894;5.080;2022-07-18T00:00:31;6.10;;;3.70;;
58966;SDS011;44744;51.894;5.080;2022-07-18T00:01:40;6.10;;;3.80;;
58966;SDS011;44744;51.894;5.080;2022-07-18T00:02:41;5.80;;;3.70;;
58966;SDS011;44744;51.894;5.080;2022-07-18T00:03:41;6.10;;;3.70;;
58966;SDS011;44744;51.894;5.080;2022-07-18T00:04:41;10.90;;;3.80;;
58966;SDS011;44744;51.894;5.080;2022-07-18T00:05:42;7.10;;;4.00;;
58966;SDS011;44744;51.894;5.080;2022-07-18T00:06:42;8.50;;;4.50;;
58966;SDS011;44744;51.894;5.080;2022-07-18T00:07:43;6.60;;;4.00;;
58966;SDS011;44744;51.894;5.080;2022-07-18T00:08:43;5.70;;;3.60;;
58966;SDS011;44744;51.894;5.080;2022-07-18T00:10:08;6.90;;;3.80;;
58966;SDS011;44744;51.894;5.080;2022-07-18T00:11:08;6.70;;;3.70;;
58966;SDS011;44744;51.894;5.080;2022-07-18T00:12:08;7.30;;;3.90;;
58966;SDS011;44744;51.894;5.080;2022-07-18T00:13:11;6.60;;;3.90;;
58966;SDS011;44744;51.894;5.080;2022-07-18T00:14:11;6.50;;;3.80;;
58966;SDS011;44744;51.894;5.080;2022-07-18T00:15:12;6.30;;;4.00;;
58966;SDS011;44744;51.894;5.080;2022-07-18T00:16:12;8.30;;;4.20;;
58966;SDS011;44744;51.894;5.080;2022-07-18T00:17:13;9.40;;;4.30;;
58966;SDS011;44744;51.894;5.080;2022-07-18T00:18:13;24.90;;;4.70;;
58966;SDS011;44744;51.894;5.080;2022-07-18T00:19:14;5.50;;;3.70;;
58966;SDS011;44744;51.894;5.080;2022-07-18T00:20:17;6.60;;;3.80;;
58966;SDS011;44744;51.894;5.080;2022-07-18T00:21:20;5.60;;;3.90;;
58966;SDS011;44744;51.894;5.080;2022-07-18T00:22:21;6.10;;;4.20;;
58966;SDS011;44744;51.894;5.080;2022-07-18T00:23:21;8.20;;;4.00;;
58966;SDS011;44744;51.894;5.080;2022-07-18T00:24:21;7.40;;;4.20;;
58966;SDS011;44744;51.894;5.080;2022-07-18T00:25:22;9.20;;;4.20;;
58966;SDS011;44744;51.894;5.080;2022-07-18T00:26:22;6.20;;;4.10;;
58966;SDS011;44744;51.894;5.080;2022-07-18T00:27:23;7.00;;;3.90;;
58966;SDS011;44744;51.894;5.080;2022-07-18T00:28:23;7.10;;;4.60;;
58966;SDS011;44744;51.894;5.080;2022-07-18T00:29:23;5.80;;;4.30;;
58966;SDS011;44744;51.894;5.080;2022-07-18T00:30:24;9.90;;;4.60;;
58966;SDS011;44744;51.894;5.080;2022-07-18T00:31:24;6.30;;;3.70;;
58966;SDS011;44744;51.894;5.080;2022-07-18T00:32:24;6.90;;;4.20;;
58966;SDS011;44744;51.894;5.080;2022-07-18T00:33:25;5.00;;;3.80;;
58966;SDS011;44744;51.894;5.080;2022-07-18T00:34:25;6.10;;;3.70;;
58966;SDS011;44744;51.894;5.080;2022-07-18T00:35:26;7.10;;;4.10;;
58966;SDS011;44744;51.894;5.080;2022-07-18T00:36:26;7.90;;;4.10;;
58966;SDS011;44744;51.894;5.080;2022-07-18T00:37:27;9.70;;;4.30;;
58966;SDS011;44744;51.894;5.080;2022-07-18T00:38:27;6.80;;;4.80;;
58966;SDS011;44744;51.894;5.080;2022-07-18T00:39:28;7.50;;;4.20;;
58966;SDS011;44744;51.894;5.080;2022-07-18T00:40:29;7.50;;;4.10;;
58966;SDS011;44744;51.894;5.080;2022-07-18T00:42:30;8.40;;;4.40;;
58966;SDS011;44744;51.894;5.080;2022-07-18T00:43:31;5.60;;;3.90;;
58966;SDS011;44744;51.894;5.080;2022-07-18T00:44:31;8.30;;;4.40;;
58966;SDS011;44744;51.894;5.080;2022-07-18T00:45:31;9.10;;;4.00;;
58966;SDS011;44744;51.894;5.080;2022-07-18T00:46:32;6.10;;;4.10;;
58966;SDS011;44744;51.894;5.080;2022-07-18T00:47:35;7.20;;;3.80;;
58966;SDS011;44744;51.894;5.080;2022-07-18T00:48:36;6.30;;;4.10;;
58966;SDS011;44744;51.894;5.080;2022-07-18T00:49:36;9.70;;;4.50;;
58966;SDS011;44744;51.894;5.080;2022-07-18T00:50:36;7.60;;;4.40;;
58966;SDS011;44744;51.894;5.080;2022-07-18T00:51:37;8.90;;;4.50;;
58966;SDS011;44744;51.894;5.080;2022-07-18T00:52:38;6.80;;;4.20;;
58966;SDS011;44744;51.894;5.080;2022-07-18T00:53:38;5.50;;;4.10;;
58966;SDS011;44744;51.894;5.080;2022-07-18T00:54:39;6.20;;;4.10;;
58966;SDS011;44744;51.894;5.080;2022-07-18T00:55:40;11.10;;;4.20;;
58966;SDS011;44744;51.894;5.080;2022-07-18T00:56:42;7.90;;;4.60;;
58966;SDS011;44744;51.894;5.080;2022-07-18T00:57:47;6.30;;;4.30;;
58966;SDS011;44744;51.894;5.080;2022-07-18T00:58:48;7.30;;;4.30;;
58966;SDS011;44744;51.894;5.080;2022-07-18T00:59:48;8.80;;;4.20;;
58966;SDS011;44744;51.894;5.080;2022-07-18T01:00:49;8.10;;;4.50;;
58966;SDS011;44744;51.894;5.080;2022-07-18T01:01:49;17.40;;;5.20;;
58966;SDS011;44744;51.894;5.080;2022-07-18T01:02:50;7.30;;;4.00;;
58966;SDS011;44744;51.894;5.080;2022-07-18T01:03:50;7.40;;;4.40;;
58966;SDS011;44744;51.894;5.080;2022-07-18T01:04:51;6.60;;;4.20;;
58966;SDS011;44744;51.894;5.080;2022-07-18T01:05:51;7.90;;;4.50;;
58966;SDS011;44744;51.894;5.080;2022-07-18T01:06:51;8.70;;;4.30;;
58966;SDS011;44744;51.894;5.080;2022-07-18T01:07:52;5.70;;;4.20;;
58966;SDS011;44744;51.894;5.080;2022-07-18T01:08:52;6.80;;;4.80;;
58966;SDS011;44744;51.894;5.080;2022-07-18T01:09:52;5.90;;;4.00;;
58966;SDS011;44744;51.894;5.080;2022-07-18T01:10:53;6.60;;;4.20;;
58966;SDS011;44744;51.894;5.080;2022-07-18T01:11:53;7.40;;;4.30;;
58966;SDS011;44744;51.894;5.080;2022-07-18T01:12:54;5.30;;;3.70;;
58966;SDS011;44744;51.894;5.080;2022-07-18T01:13:54;9.20;;;3.90;;
58966;SDS011;44744;51.894;5.080;2022-07-18T01:14:54;6.40;;;4.00;;
58966;SDS011;44744;51.894;5.080;2022-07-18T01:15:55;6.00;;;4.30;;
58966;SDS011;44744;51.894;5.080;2022-07-18T01:16:55;6.50;;;4.10;;
58966;SDS011;44744;51.894;5.080;2022-07-18T01:17:55;7.90;;;4.50;;
58966;SDS011;44744;51.894;5.080;2022-07-18T01:18:56;6.20;;;3.90;;
58966;SDS011;44744;51.894;5.080;2022-07-18T01:19:56;6.70;;;4.20;;
58966;SDS011;44744;51.894;5.080;2022-07-18T01:20:56;7.80;;;4.10;;
58966;SDS011;44744;51.894;5.080;2022-07-18T01:21:57;7.20;;;4.00;;
58966;SDS011;44744;51.894;5.080;2022-07-18T01:22:58;6.80;;;4.40;;
58966;SDS011;44744;51.894;5.080;2022-07-18T01:23:58;7.10;;;4.50;;
58966;SDS011;44744;51.894;5.080;2022-07-18T01:24:59;6.60;;;4.10;;
58966;SDS011;44744;51.894;5.080;2022-07-18T01:25:59;6.40;;;4.10;;
58966;SDS011;44744;51.894;5.080;2022-07-18T01:27:00;6.80;;;4.20;;
58966;SDS011;44744;51.894;5.080;2022-07-18T01:28:00;7.70;;;4.60;;
58966;SDS011;44744;51.894;5.080;2022-07-18T01:29:01;5.80;;;4.20;;
58966;SDS011;44744;51.894;5.080;2022-07-18T01:30:02;7.80;;;4.00;;
58966;SDS011;44744;51.894;5.080;2022-07-18T01:31:04;7.20;;;4.00;;
58966;SDS011;44744;51.894;5.080;2022-07-18T01:32:05;7.50;;;4.40;;
58966;SDS011;44744;51.894;5.080;2022-07-18T01:33:07;10.10;;;4.10;;
58966;SDS011;44744;51.894;5.080;2022-07-18T01:34:08;6.00;;;4.10;;
58966;SDS011;44744;51.894;5.080;2022-07-18T01:35:08;7.70;;;4.10;;
58966;SDS011;44744;51.894;5.080;2022-07-18T01:36:09;6.00;;;4.10;;
58966;SDS011;44744;51.894;5.080;2022-07-18T01:37:09;9.40;;;4.30;;
58966;SDS011;44744;51.894;5.080;2022-07-18T01:38:10;8.40;;;4.40;;
58966;SDS011;44744;51.894;5.080;2022-07-18T01:39:10;6.30;;;4.40;;
58966;SDS011;44744;51.894;5.080;2022-07-18T01:40:11;7.10;;;4.20;;
58966;SDS011;44744;51.894;5.080;2022-07-18T01:41:12;10.70;;;4.90;;
58966;SDS011;44744;51.894;5.080;2022-07-18T01:42:12;6.40;;;4.30;;
58966;SDS011;44744;51.894;5.080;2022-07-18T01:43:13;5.60;;;3.90;;
58966;SDS011;44744;51.894;5.080;2022-07-18T01:44:14;7.80;;;4.00;;
58966;SDS011;44744;51.894;5.080;2022-07-18T01:45:14;7.30;;;4.50;;
58966;SDS011;44744;51.894;5.080;2022-07-18T01:46:15;8.00;;;4.50;;
58966;SDS011;44744;51.894;5.080;2022-07-18T01:47:15;6.50;;;4.50;;
58966;SDS011;44744;51.894;5.080;2022-07-18T01:48:16;6.00;;;4.10;;
58966;SDS011;44744;51.894;5.080;2022-07-18T01:49:18;7.10;;;4.20;;
58966;SDS011;44744;51.894;5.080;2022-07-18T01:50:19;7.30;;;4.10;;
58966;SDS011;44744;51.894;5.080;2022-07-18T01:51:19;6.70;;;4.50;;
58966;SDS011;44744;51.894;5.080;2022-07-18T01:52:31;8.30;;;4.20;;
58966;SDS011;44744;51.894;5.080;2022-07-18T01:53:34;9.60;;;4.50;;
58966;SDS011;44744;51.894;5.080;2022-07-18T01:54:35;7.80;;;4.10;;
58966;SDS011;44744;51.894;5.080;2022-07-18T01:55:36;8.30;;;4.70;;
58966;SDS011;44744;51.894;5.080;2022-07-18T01:56:40;7.20;;;4.40;;
58966;SDS011;44744;51.894;5.080;2022-07-18T01:57:40;6.40;;;4.30;;
58966;SDS011;44744;51.894;5.080;2022-07-18T01:58:41;6.80;;;4.50;;
58966;SDS011;44744;51.894;5.080;2022-07-18T01:59:41;7.90;;;4.80;;
58966;SDS011;44744;51.894;5.080;2022-07-18T02:00:42;8.90;;;4.70;;
58966;SDS011;44744;51.894;5.080;2022-07-18T02:01:42;7.00;;;4.00;;
58966;SDS011;44744;51.894;5.080;2022-07-18T02:02:44;8.00;;;4.10;;
58966;SDS011;44744;51.894;5.080;2022-07-18T02:03:47;6.30;;;4.40;;
58966;SDS011;44744;51.894;5.080;2022-07-18T02:04:48;7.70;;;4.60;;
58966;SDS011;44744;51.894;5.080;2022-07-18T02:05:48;7.10;;;4.40;;
58966;SDS011;44744;51.894;5.080;2022-07-18T02:06:48;7.10;;;4.20;;
58966;SDS011;44744;51.894;5.080;2022-07-18T02:07:49;7.30;;;4.20;;
58966;SDS011;44744;51.894;5.080;2022-07-18T02:08:49;6.00;;;4.00;;
58966;SDS011;44744;51.894;5.080;2022-07-18T02:10:04;6.40;;;4.10;;
58966;SDS011;44744;51.894;5.080;2022-07-18T02:11:06;5.70;;;4.40;;
58966;SDS011;44744;51.894;5.080;2022-07-18T02:12:06;8.50;;;4.60;;
58966;SDS011;44744;51.894;5.080;2022-07-18T02:13:10;11.10;;;4.70;;
58966;SDS011;44744;51.894;5.080;2022-07-18T02:14:10;6.50;;;4.60;;
58966;SDS011;44744;51.894;5.080;2022-07-18T02:15:12;6.40;;;4.80;;
58966;SDS011;44744;51.894;5.080;2022-07-18T02:16:13;9.30;;;4.90;;
58966;SDS011;44744;51.894;5.080;2022-07-18T02:17:19;7.40;;;4.60;;
58966;SDS011;44744;51.894;5.080;2022-07-18T02:18:20;6.20;;;4.40;;
58966;SDS011;44744;51.894;5.080;2022-07-18T02:19:20;7.90;;;4.90;;
58966;SDS011;44744;51.894;5.080;2022-07-18T02:20:21;5.50;;;4.30;;
58966;SDS011;44744;51.894;5.080;2022-07-18T02:21:24;6.50;;;4.30;;
58966;SDS011;44744;51.894;5.080;2022-07-18T02:22:25;7.00;;;4.30;;
58966;SDS011;44744;51.894;5.080;2022-07-18T02:23:25;7.20;;;4.60;;
58966;SDS011;44744;51.894;5.080;2022-07-18T02:24:29;5.90;;;4.60;;
58966;SDS011;44744;51.894;5.080;2022-07-18T02:25:32;6.80;;;4.90;;
58966;SDS011;44744;51.894;5.080;2022-07-18T02:26:37;7.70;;;5.10;;
58966;SDS011;44744;51.894;5.080;2022-07-18T02:27:59;8.20;;;4.90;;
58966;SDS011;44744;51.894;5.080;2022-07-18T02:28:58;8.90;;;4.70;;
58966;SDS011;44744;51.894;5.080;2022-07-18T02:29:59;6.40;;;4.50;;
58966;SDS011;44744;51.894;5.080;2022-07-18T02:30:59;7.30;;;4.90;;
58966;SDS011;44744;51.894;5.080;2022-07-18T02:32:06;6.40;;;4.80;;
58966;SDS011;44744;51.894;5.080;2022-07-18T02:33:06;6.60;;;4.80;;
58966;SDS011;44744;51.894;5.080;2022-07-18T02:34:06;8.00;;;5.00;;
58966;SDS011;44744;51.894;5.080;2022-07-18T02:35:07;12.10;;;4.70;;
58966;SDS011;44744;51.894;5.080;2022-07-18T02:36:08;6.20;;;4.20;;
58966;SDS011;44744;51.894;5.080;2022-07-18T02:37:09;6.10;;;4.40;;
58966;SDS011;44744;51.894;5.080;2022-07-18T02:38:09;7.70;;;5.20;;
58966;SDS011;44744;51.894;5.080;2022-07-18T02:39:10;6.40;;;4.10;;
58966;SDS011;44744;51.894;5.080;2022-07-18T02:40:10;8.00;;;5.10;;
58966;SDS011;44744;51.894;5.080;2022-07-18T02:41:11;7.30;;;5.20;;
58966;SDS011;44744;51.894;5.080;2022-07-18T02:42:11;6.70;;;4.60;;
58966;SDS011;44744;51.894;5.080;2022-07-18T02:43:12;7.70;;;5.00;;
58966;SDS011;44744;51.894;5.080;2022-07-18T02:44:15;6.90;;;5.10;;
58966;SDS011;44744;51.894;5.080;2022-07-18T02:45:15;8.10;;;5.60;;
58966;SDS011;44744;51.894;5.080;2022-07-18T02:46:16;7.80;;;5.20;;
58966;SDS011;44744;51.894;5.080;2022-07-18T02:47:16;11.30;;;5.80;;
58966;SDS011;44744;51.894;5.080;2022-07-18T02:48:16;9.60;;;5.80;;
58966;SDS011;44744;51.894;5.080;2022-07-18T02:49:16;7.50;;;5.30;;
58966;SDS011;44744;51.894;5.080;2022-07-18T02:50:18;10.60;;;5.80;;
58966;SDS011;44744;51.894;5.080;2022-07-18T02:51:18;11.90;;;5.20;;
58966;SDS011;44744;51.894;5.080;2022-07-18T02:52:19;7.00;;;5.40;;
58966;SDS011;44744;51.894;5.080;2022-07-18T02:53:19;8.50;;;5.40;;
58966;SDS011;44744;51.894;5.080;2022-07-18T02:54:20;7.40;;;5.50;;
58966;SDS011;44744;51.894;5.080;2022-07-18T02:55:21;8.60;;;5.30;;
58966;SDS011;44744;51.894;5.080;2022-07-18T02:56:24;8.60;;;5.70;;
58966;SDS011;44744;51.894;5.080;2022-07-18T02:57:24;7.60;;;5.90;;
58966;SDS011;44744;51.894;5.080;2022-07-18T02:58:25;9.60;;;5.70;;
58966;SDS011;44744;51.894;5.080;2022-07-18T02:59:25;9.20;;;5.80;;
58966;SDS011;44744;51.894;5.080;2022-07-18T03:00:27;10.00;;;6.20;;
58966;SDS011;44744;51.894;5.080;2022-07-18T03:01:27;10.40;;;6.20;;
58966;SDS011;44744;51.894;5.080;2022-07-18T03:02:27;8.00;;;5.80;;
58966;SDS011;44744;51.894;5.080;2022-07-18T03:03:28;8.00;;;5.90;;
58966;SDS011;44744;51.894;5.080;2022-07-18T03:04:28;9.40;;;5.80;;
58966;SDS011;44744;51.894;5.080;2022-07-18T03:05:29;8.60;;;5.60;;
58966;SDS011;44744;51.894;5.080;2022-07-18T03:06:29;8.90;;;5.90;;
58966;SDS011;44744;51.894;5.080;2022-07-18T03:07:30;7.70;;;6.10;;
58966;SDS011;44744;51.894;5.080;2022-07-18T03:08:33;9.00;;;6.00;;
58966;SDS011;44744;51.894;5.080;2022-07-18T03:09:33;10.10;;;5.30;;
58966;SDS011;44744;51.894;5.080;2022-07-18T03:10:33;8.70;;;5.60;;
58966;SDS011;44744;51.894;5.080;2022-07-18T03:11:34;12.10;;;6.10;;
58966;SDS011;44744;51.894;5.080;2022-07-18T03:12:34;8.80;;;6.10;;
58966;SDS011;44744;51.894;5.080;2022-07-18T03:13:35;8.80;;;6.00;;
58966;SDS011;44744;51.894;5.080;2022-07-18T03:14:35;8.60;;;5.60;;
58966;SDS011;44744;51.894;5.080;2022-07-18T03:15:35;9.30;;;5.60;;
58966;SDS011;44744;51.894;5.080;2022-07-18T03:16:36;9.30;;;6.00;;
58966;SDS011;44744;51.894;5.080;2022-07-18T03:17:37;9.20;;;5.90;;
58966;SDS011;44744;51.894;5.080;2022-07-18T03:18:37;8.80;;;6.10;;
58966;SDS011;44744;51.894;5.080;2022-07-18T03:19:37;10.20;;;6.10;;
58966;SDS011;44744;51.894;5.080;2022-07-18T03:20:38;8.20;;;5.90;;
58966;SDS011;44744;51.894;5.080;2022-07-18T03:21:38;9.10;;;5.60;;
58966;SDS011;44744;51.894;5.080;2022-07-18T03:22:39;8.00;;;5.50;;
58966;SDS011;44744;51.894;5.080;2022-07-18T03:23:39;7.40;;;5.80;;
58966;SDS011;44744;51.894;5.080;2022-07-18T03:24:40;11.80;;;6.10;;
58966;SDS011;44744;51.894;5.080;2022-07-18T03:25:43;8.00;;;5.70;;
58966;SDS011;44744;51.894;5.080;2022-07-18T03:26:43;11.70;;;6.50;;
58966;SDS011;44744;51.894;5.080;2022-07-18T03:27:44;9.90;;;6.50;;
58966;SDS011;44744;51.894;5.080;2022-07-18T03:28:47;11.10;;;6.70;;
58966;SDS011;44744;51.894;5.080;2022-07-18T03:29:47;10.70;;;6.60;;
58966;SDS011;44744;51.894;5.080;2022-07-18T03:30:48;11.60;;;5.80;;
58966;SDS011;44744;51.894;5.080;2022-07-18T03:31:48;8.50;;;6.00;;
58966;SDS011;44744;51.894;5.080;2022-07-18T03:32:48;10.60;;;6.80;;
58966;SDS011;44744;51.894;5.080;2022-07-18T03:33:49;11.50;;;6.50;;
58966;SDS011;44744;51.894;5.080;2022-07-18T03:34:49;9.40;;;6.20;;
58966;SDS011;44744;51.894;5.080;2022-07-18T03:35:49;7.30;;;5.70;;
58966;SDS011;44744;51.894;5.080;2022-07-18T03:36:50;8.90;;;6.40;;
58966;SDS011;44744;51.894;5.080;2022-07-18T03:37:53;8.50;;;6.20;;
58966;SDS011;44744;51.894;5.080;2022-07-18T03:38:59;9.90;;;5.90;;
58966;SDS011;44744;51.894;5.080;2022-07-18T03:40:03;10.60;;;5.80;;
58966;SDS011;44744;51.894;5.080;2022-07-18T03:41:03;10.70;;;6.00;;
58966;SDS011;44744;51.894;5.080;2022-07-18T03:42:04;10.60;;;6.10;;
58966;SDS011;44744;51.894;5.080;2022-07-18T03:43:04;7.80;;;6.20;;
58966;SDS011;44744;51.894;5.080;2022-07-18T03:44:05;9.50;;;6.40;;
58966;SDS011;44744;51.894;5.080;2022-07-18T03:45:06;8.50;;;6.20;;
58966;SDS011;44744;51.894;5.080;2022-07-18T03:46:10;8.60;;;5.70;;
58966;SDS011;44744;51.894;5.080;2022-07-18T03:47:10;9.50;;;6.60;;
58966;SDS011;44744;51.894;5.080;2022-07-18T03:48:10;9.40;;;6.10;;
58966;SDS011;44744;51.894;5.080;2022-07-18T03:49:11;8.30;;;6.50;;
58966;SDS011;44744;51.894;5.080;2022-07-18T03:50:11;8.50;;;6.20;;
58966;SDS011;44744;51.894;5.080;2022-07-18T03:51:12;10.40;;;6.60;;
58966;SDS011;44744;51.894;5.080;2022-07-18T03:52:12;11.80;;;6.00;;
58966;SDS011;44744;51.894;5.080;2022-07-18T03:53:12;8.70;;;6.30;;
58966;SDS011;44744;51.894;5.080;2022-07-18T03:54:13;7.30;;;5.60;;
58966;SDS011;44744;51.894;5.080;2022-07-18T03:55:13;7.40;;;5.80;;
58966;SDS011;44744;51.894;5.080;2022-07-18T03:56:13;8.50;;;6.00;;
58966;SDS011;44744;51.894;5.080;2022-07-18T03:57:14;10.80;;;6.90;;
58966;SDS011;44744;51.894;5.080;2022-07-18T03:58:14;9.50;;;6.10;;
58966;SDS011;44744;51.894;5.080;2022-07-18T03:59:14;8.80;;;6.00;;
58966;SDS011;44744;51.894;5.080;2022-07-18T04:00:15;9.00;;;6.40;;
58966;SDS011;44744;51.894;5.080;2022-07-18T04:01:15;11.30;;;6.90;;
58966;SDS011;44744;51.894;5.080;2022-07-18T04:02:15;9.40;;;7.20;;
58966;SDS011;44744;51.894;5.080;2022-07-18T04:03:16;8.30;;;6.00;;
58966;SDS011;44744;51.894;5.080;2022-07-18T04:04:17;16.40;;;6.60;;
58966;SDS011;44744;51.894;5.080;2022-07-18T04:05:20;8.80;;;6.50;;
58966;SDS011;44744;51.894;5.080;2022-07-18T04:06:20;10.70;;;6.50;;
58966;SDS011;44744;51.894;5.080;2022-07-18T04:07:20;9.10;;;6.50;;
58966;SDS011;44744;51.894;5.080;2022-07-18T04:08:21;9.60;;;6.30;;
58966;SDS011;44744;51.894;5.080;2022-07-18T04:09:25;9.40;;;5.90;;
58966;SDS011;44744;51.894;5.080;2022-07-18T04:10:25;9.80;;;5.90;;
58966;SDS011;44744;51.894;5.080;2022-07-18T04:11:26;9.10;;;5.70;;
58966;SDS011;44744;51.894;5.080;2022-07-18T04:12:26;11.20;;;6.70;;
58966;SDS011;44744;51.894;5.080;2022-07-18T04:13:26;8.30;;;5.40;;
58966;SDS011;44744;51.894;5.080;2022-07-18T04:14:27;9.20;;;6.30;;
58966;SDS011;44744;51.894;5.080;2022-07-18T04:15:27;8.80;;;5.80;;
58966;SDS011;44744;51.894;5.080;2022-07-18T04:16:29;8.20;;;5.90;;
58966;SDS011;44744;51.894;5.080;2022-07-18T04:17:30;11.60;;;6.10;;
58966;SDS011;44744;51.894;5.080;2022-07-18T04:18:30;10.80;;;5.90;;
58966;SDS011;44744;51.894;5.080;2022-07-18T04:19:34;9.50;;;6.30;;
58966;SDS011;44744;51.894;5.080;2022-07-18T04:20:34;9.20;;;6.10;;
58966;SDS011;44744;51.894;5.080;2022-07-18T04:21:36;12.70;;;6.70;;
58966;SDS011;44744;51.894;5.080;2022-07-18T04:22:49;9.30;;;5.90;;
58966;SDS011;44744;51.894;5.080;2022-07-18T04:23:54;9.00;;;5.90;;
58966;SDS011;44744;51.894;5.080;2022-07-18T04:24:54;11.10;;;6.00;;
58966;SDS011;44744;51.894;5.080;2022-07-18T04:25:55;12.20;;;6.50;;
58966;SDS011;44744;51.894;5.080;2022-07-18T04:26:55;10.40;;;5.80;;
58966;SDS011;44744;51.894;5.080;2022-07-18T04:27:56;9.90;;;6.10;;
58966;SDS011;44744;51.894;5.080;2022-07-18T04:28:56;12.00;;;6.70;;
58966;SDS011;44744;51.894;5.080;2022-07-18T04:29:56;9.30;;;6.20;;
58966;SDS011;44744;51.894;5.080;2022-07-18T04:30:57;8.60;;;6.40;;
58966;SDS011;44744;51.894;5.080;2022-07-18T04:31:58;7.40;;;5.70;;
58966;SDS011;44744;51.894;5.080;2022-07-18T04:33:00;8.40;;;6.60;;
58966;SDS011;44744;51.894;5.080;2022-07-18T04:34:02;12.00;;;6.60;;
58966;SDS011;44744;51.894;5.080;2022-07-18T04:35:03;9.50;;;6.10;;
58966;SDS011;44744;51.894;5.080;2022-07-18T04:37:05;8.80;;;6.00;;
58966;SDS011;44744;51.894;5.080;2022-07-18T04:38:06;13.80;;;7.20;;
58966;SDS011;44744;51.894;5.080;2022-07-18T04:40:08;8.90;;;6.20;;
58966;SDS011;44744;51.894;5.080;2022-07-18T04:42:10;11.20;;;6.50;;
58966;SDS011;44744;51.894;5.080;2022-07-18T04:43:10;8.10;;;6.10;;
58966;SDS011;44744;51.894;5.080;2022-07-18T04:44:11;10.10;;;5.80;;
58966;SDS011;44744;51.894;5.080;2022-07-18T04:45:11;8.10;;;6.10;;
58966;SDS011;44744;51.894;5.080;2022-07-18T04:46:12;9.40;;;6.10;;
58966;SDS011;44744;51.894;5.080;2022-07-18T04:47:12;10.20;;;5.90;;
58966;SDS011;44744;51.894;5.080;2022-07-18T04:48:13;9.90;;;6.70;;
58966;SDS011;44744;51.894;5.080;2022-07-18T04:49:15;11.30;;;6.60;;
58966;SDS011;44744;51.894;5.080;2022-07-18T04:50:15;9.00;;;5.80;;
58966;SDS011;44744;51.894;5.080;2022-07-18T04:51:15;9.90;;;6.10;;
58966;SDS011;44744;51.894;5.080;2022-07-18T04:52:16;10.40;;;6.20;;
58966;SDS011;44744;51.894;5.080;2022-07-18T04:53:16;9.50;;;6.30;;
58966;SDS011;44744;51.894;5.080;2022-07-18T04:54:17;8.50;;;5.80;;
58966;SDS011;44744;51.894;5.080;2022-07-18T04:55:18;12.60;;;6.60;;
58966;SDS011;44744;51.894;5.080;2022-07-18T04:56:22;9.20;;;6.20;;
58966;SDS011;44744;51.894;5.080;2022-07-18T04:57:23;10.50;;;6.30;;
58966;SDS011;44744;51.894;5.080;2022-07-18T04:58:23;9.90;;;5.90;;
58966;SDS011;44744;51.894;5.080;2022-07-18T04:59:23;8.70;;;6.30;;
58966;SDS011;44744;51.894;5.080;2022-07-18T05:00:25;8.90;;;6.10;;
58966;SDS011;44744;51.894;5.080;2022-07-18T05:01:26;9.10;;;6.40;;
58966;SDS011;44744;51.894;5.080;2022-07-18T05:02:26;10.90;;;6.40;;
58966;SDS011;44744;51.894;5.080;2022-07-18T05:03:27;9.40;;;6.00;;
58966;SDS011;44744;51.894;5.080;2022-07-18T05:04:27;11.60;;;6.40;;
58966;SDS011;44744;51.894;5.080;2022-07-18T05:05:27;12.90;;;6.50;;
58966;SDS011;44744;51.894;5.080;2022-07-18T05:06:28;13.70;;;7.00;;
58966;SDS011;44744;51.894;5.080;2022-07-18T05:07:31;12.40;;;5.80;;
58966;SDS011;44744;51.894;5.080;2022-07-18T05:08:34;8.60;;;5.80;;
58966;SDS011;44744;51.894;5.080;2022-07-18T05:11:24;10.80;;;6.90;;
58966;SDS011;44744;51.894;5.080;2022-07-18T05:12:28;7.40;;;5.90;;
58966;SDS011;44744;51.894;5.080;2022-07-18T05:13:30;9.80;;;7.20;;
58966;SDS011;44744;51.894;5.080;2022-07-18T05:14:31;9.80;;;7.00;;
58966;SDS011;44744;51.894;5.080;2022-07-18T05:15:31;11.20;;;7.40;;
58966;SDS011;44744;51.894;5.080;2022-07-18T05:16:31;13.20;;;6.70;;
58966;SDS011;44744;51.894;5.080;2022-07-18T05:17:32;8.20;;;6.10;;
58966;SDS011;44744;51.894;5.080;2022-07-18T05:18:33;14.00;;;6.50;;
58966;SDS011;44744;51.894;5.080;2022-07-18T05:19:33;9.50;;;6.30;;
58966;SDS011;44744;51.894;5.080;2022-07-18T05:20:33;9.10;;;6.20;;
58966;SDS011;44744;51.894;5.080;2022-07-18T05:21:34;10.40;;;7.10;;
58966;SDS011;44744;51.894;5.080;2022-07-18T05:22:35;9.50;;;6.60;;
58966;SDS011;44744;51.894;5.080;2022-07-18T05:23:38;10.70;;;6.80;;
58966;SDS011;44744;51.894;5.080;2022-07-18T05:24:38;8.70;;;6.00;;
58966;SDS011;44744;51.894;5.080;2022-07-18T05:25:38;11.70;;;7.80;;
58966;SDS011;44744;51.894;5.080;2022-07-18T05:26:39;9.90;;;6.60;;
58966;SDS011;44744;51.894;5.080;2022-07-18T05:27:39;12.30;;;6.30;;
58966;SDS011;44744;51.894;5.080;2022-07-18T05:28:40;11.70;;;7.00;;
58966;SDS011;44744;51.894;5.080;2022-07-18T05:29:41;9.30;;;6.70;;
58966;SDS011;44744;51.894;5.080;2022-07-18T05:30:44;7.60;;;6.00;;
58966;SDS011;44744;51.894;5.080;2022-07-18T05:31:44;11.40;;;6.60;;
58966;SDS011;44744;51.894;5.080;2022-07-18T05:32:44;11.70;;;6.70;;
58966;SDS011;44744;51.894;5.080;2022-07-18T05:33:45;13.30;;;6.50;;
58966;SDS011;44744;51.894;5.080;2022-07-18T05:34:45;10.30;;;6.10;;
58966;SDS011;44744;51.894;5.080;2022-07-18T05:35:45;9.20;;;6.50;;
58966;SDS011;44744;51.894;5.080;2022-07-18T05:36:46;8.30;;;6.40;;
58966;SDS011;44744;51.894;5.080;2022-07-18T05:37:46;12.00;;;6.40;;
58966;SDS011;44744;51.894;5.080;2022-07-18T05:38:50;11.20;;;7.00;;
58966;SDS011;44744;51.894;5.080;2022-07-18T05:39:50;11.30;;;6.30;;
58966;SDS011;44744;51.894;5.080;2022-07-18T05:40:51;9.10;;;6.90;;
58966;SDS011;44744;51.894;5.080;2022-07-18T05:41:51;9.30;;;6.70;;
58966;SDS011;44744;51.894;5.080;2022-07-18T05:42:52;13.60;;;7.50;;
58966;SDS011;44744;51.894;5.080;2022-07-18T05:43:56;16.30;;;7.10;;
58966;SDS011;44744;51.894;5.080;2022-07-18T05:44:59;8.50;;;6.50;;
58966;SDS011;44744;51.894;5.080;2022-07-18T05:46:02;9.90;;;7.10;;
58966;SDS011;44744;51.894;5.080;2022-07-18T05:47:03;13.20;;;6.10;;
58966;SDS011;44744;51.894;5.080;2022-07-18T05:48:03;13.70;;;6.90;;
58966;SDS011;44744;51.894;5.080;2022-07-18T05:49:04;12.10;;;7.20;;
58966;SDS011;44744;51.894;5.080;2022-07-18T05:50:04;14.50;;;6.50;;
58966;SDS011;44744;51.894;5.080;2022-07-18T05:51:06;15.50;;;6.90;;
58966;SDS011;44744;51.894;5.080;2022-07-18T05:52:07;12.70;;;7.80;;
58966;SDS011;44744;51.894;5.080;2022-07-18T05:53:08;15.60;;;7.50;;
58966;SDS011;44744;51.894;5.080;2022-07-18T05:54:08;10.20;;;7.80;;
58966;SDS011;44744;51.894;5.080;2022-07-18T05:55:09;14.50;;;7.20;;
58966;SDS011;44744;51.894;5.080;2022-07-18T05:56:10;12.30;;;7.30;;
58966;SDS011;44744;51.894;5.080;2022-07-18T05:57:10;10.40;;;7.40;;
58966;SDS011;44744;51.894;5.080;2022-07-18T05:58:11;17.80;;;7.90;;
58966;SDS011;44744;51.894;5.080;2022-07-18T05:59:11;11.20;;;7.90;;
58966;SDS011;44744;51.894;5.080;2022-07-18T06:00:12;13.50;;;7.90;;
58966;SDS011;44744;51.894;5.080;2022-07-18T06:01:12;10.90;;;7.20;;
58966;SDS011;44744;51.894;5.080;2022-07-18T06:02:13;11.00;;;7.30;;
58966;SDS011;44744;51.894;5.080;2022-07-18T06:03:13;12.00;;;7.00;;
58966;SDS011;44744;51.894;5.080;2022-07-18T06:04:14;10.60;;;7.60;;
58966;SDS011;44744;51.894;5.080;2022-07-18T06:05:15;13.50;;;7.60;;
58966;SDS011;44744;51.894;5.080;2022-07-18T06:06:15;11.20;;;7.80;;
58966;SDS011;44744;51.894;5.080;2022-07-18T06:07:16;13.20;;;7.60;;
58966;SDS011;44744;51.894;5.080;2022-07-18T06:08:17;14.10;;;7.90;;
58966;SDS011;44744;51.894;5.080;2022-07-18T06:09:17;9.60;;;6.90;;
58966;SDS011;44744;51.894;5.080;2022-07-18T06:10:18;11.10;;;7.20;;
58966;SDS011;44744;51.894;5.080;2022-07-18T06:11:18;12.30;;;7.80;;
58966;SDS011;44744;51.894;5.080;2022-07-18T06:12:18;12.00;;;7.30;;